Time;durP1;ratioP1;P1;durP2;ratioP2;P2;SDS_P1;SDS_P2;PMS_P1;PMS_P2;Temp;Humidity;BMP_temperature;BMP_pressure;BME280_temperature;BME280_humidity;BME280_pressure;Samples;Min_cycle;Max_cycle;Signal;HPM_P1;HPM_P2
2022/02/19 00:00:38;;;;;;;;;;;10.50;99.90;;;;;;5072432;28;20003;-74
2022/02/19 00:03:03;;;;;;;;;;;10.50;99.90;;;;;;5058445;28;20090;-74
2022/02/19 00:05:29;;;;;;;;;;;10.50;99.90;;;;;;5053256;28;19917;-74
2022/02/19 00:07:56;;;;;;;;;;;10.50;99.90;;;;;;5068141;28;19921;-73
2022/02/19 00:10:21;;;;;;;;;;;10.50;99.90;;;;;;5056435;28;19912;-73
2022/02/19 00:12:47;;;;;;;;;;;10.40;99.90;;;;;;5056494;28;20314;-74
2022/02/19 00:15:13;;;;;;;;;;;10.40;99.90;;;;;;5065236;28;19912;-74
2022/02/19 00:17:38;;;;;;;;;;;10.30;99.90;;;;;;5058630;28;19912;-73
2022/02/19 00:20:05;;;;;;;;;;;10.20;99.90;;;;;;5065391;28;19917;-74
2022/02/19 00:22:31;;;;;;;;;;;10.20;99.90;;;;;;5057745;28;20003;-74
2022/02/19 00:24:56;;;;;;;;;;;10.10;99.90;;;;;;5073954;28;20078;-73
2022/02/19 00:27:22;;;;;;;;;;;10.10;99.90;;;;;;5070724;28;20263;-73
2022/02/19 00:29:47;;;;;;;;;;;10.20;99.90;;;;;;5070430;28;19923;-74
2022/02/19 00:32:13;;;;;;;;;;;10.10;99.90;;;;;;5057547;28;20000;-74
2022/02/19 00:34:38;;;;;;;;;;;10.10;99.90;;;;;;5073885;28;19940;-73
2022/02/19 00:37:04;;;;;;;;;;;10.20;99.90;;;;;;5069629;28;19990;-74
2022/02/19 00:39:30;;;;;;;;;;;10.20;99.90;;;;;;5059222;28;19952;-73
2022/02/19 00:41:56;;;;;;;;;;;10.20;99.90;;;;;;5076639;28;19965;-73
2022/02/19 00:44:22;;;;;;;;;;;10.20;99.90;;;;;;5068675;28;20362;-73
2022/02/19 00:46:48;;;;;;;;;;;10.10;99.90;;;;;;5058344;28;19958;-73
2022/02/19 00:49:13;;;;;;;;;;;10.10;99.90;;;;;;5063023;28;19912;-73
2022/02/19 00:51:39;;;;;;;;;;;10.20;99.90;;;;;;5065038;28;19919;-73
2022/02/19 00:54:05;;;;;;;;;;;10.00;99.90;;;;;;5057025;28;19912;-73
2022/02/19 00:56:30;;;;;;;;;;;10.00;99.90;;;;;;5064184;28;20370;-72
2022/02/19 00:58:56;;;;;;;;;;;10.00;99.90;;;;;;5062447;28;19912;-73
2022/02/19 01:01:23;;;;;;;;;;;10.00;99.90;;;;;;5054748;28;19999;-73
2022/02/19 01:03:52;;;;;;;;;;;9.90;99.90;;;;;;5062461;28;20409;-73
2022/02/19 01:06:18;;;;;;;;;;;9.80;99.90;;;;;;5057145;28;19961;-73
2022/02/19 01:08:43;;;;;;;;;;;9.80;99.90;;;;;;5063052;28;19912;-74
2022/02/19 01:11:10;;;;;;;;;;;9.70;99.90;;;;;;5064708;28;19923;-74
2022/02/19 01:13:35;;;;;;;;;;;9.70;99.90;;;;;;5073373;28;19936;-74
2022/02/19 01:16:01;;;;;;;;;;;9.70;99.90;;;;;;5064337;28;19920;-74
2022/02/19 01:18:26;;;;;;;;;;;9.70;99.90;;;;;;5072160;28;19917;-74
2022/02/19 01:20:52;;;;;;;;;;;9.70;99.90;;;;;;5070315;28;19917;-74
2022/02/19 01:23:18;;;;;;;;;;;9.70;99.90;;;;;;5056631;28;20462;-74
2022/02/19 01:25:43;;;;;;;;;;;9.70;99.90;;;;;;5073283;28;19913;-74
2022/02/19 01:28:09;;;;;;;;;;;9.60;99.90;;;;;;5063359;28;20320;-74
2022/02/19 01:30:34;;;;;;;;;;;9.70;99.90;;;;;;5057275;28;20003;-73
2022/02/19 01:33:00;;;;;;;;;;;9.70;99.90;;;;;;5057105;28;20278;-73
2022/02/19 01:35:25;;;;;;;;;;;9.80;99.90;;;;;;5063135;28;19913;-72
2022/02/19 01:37:51;;;;;;;;;;;9.80;99.90;;;;;;5065357;28;19974;-73
2022/02/19 01:40:17;;;;;;;;;;;9.70;99.90;;;;;;5073468;28;19952;-73
2022/02/19 01:42:42;;;;;;;;;;;9.70;99.90;;;;;;5055249;28;19966;-73
2022/02/19 01:45:11;;;;;;;;;;;9.80;99.90;;;;;;5073583;28;19913;-73
2022/02/19 01:47:36;;;;;;;;;;;9.70;99.90;;;;;;5058521;28;19917;-73
2022/02/19 01:50:06;;;;;;;;;;;9.70;99.90;;;;;;5059516;28;19912;-73
2022/02/19 01:52:31;;;;;;;;;;;9.70;99.90;;;;;;5070755;28;19919;-72
2022/02/19 01:54:57;;;;;;;;;;;9.70;99.90;;;;;;5054248;28;19925;-73
2022/02/19 01:57:23;;;;;;;;;;;9.60;99.90;;;;;;5056589;28;19999;-73
2022/02/19 01:59:52;;;;;;;;;;;9.70;99.90;;;;;;5055113;28;19935;-74
2022/02/19 02:02:18;;;;;;;;;;;9.70;99.90;;;;;;5065808;28;20007;-73
2022/02/19 02:04:44;;;;;;;;;;;9.70;99.90;;;;;;5069584;28;20008;-73
2022/02/19 02:07:09;;;;;;;;;;;9.70;99.90;;;;;;5056449;28;20466;-73
2022/02/19 02:09:36;;;;;;;;;;;9.70;99.90;;;;;;5084955;28;20391;-73
2022/02/19 02:12:02;;;;;;;;;;;9.70;99.90;;;;;;5075376;28;19913;-73
2022/02/19 02:14:28;;;;;;;;;;;9.70;99.90;;;;;;5073592;28;20290;-73
2022/02/19 02:16:54;;;;;;;;;;;9.60;99.90;;;;;;5056218;28;19919;-73
2022/02/19 02:19:19;;;;;;;;;;;9.60;99.90;;;;;;5055377;28;19917;-73
2022/02/19 02:21:45;;;;;;;;;;;9.60;99.90;;;;;;5060649;28;20304;-72
2022/02/19 02:24:10;;;;;;;;;;;9.60;99.90;;;;;;5069938;28;19986;-73
2022/02/19 02:26:37;;;;;;;;;;;9.60;99.90;;;;;;5061669;28;19912;-72
2022/02/19 02:29:03;;;;;;;;;;;9.60;99.90;;;;;;5060475;28;19916;-73
2022/02/19 02:31:28;;;;;;;;;;;9.60;99.90;;;;;;5060251;28;20015;-72
2022/02/19 02:33:54;;;;;;;;;;;9.60;99.90;;;;;;5061798;28;19920;-73
2022/02/19 02:36:20;;;;;;;;;;;9.70;99.90;;;;;;5061407;28;20020;-73
2022/02/19 02:38:46;;;;;;;;;;;9.70;99.90;;;;;;5061841;28;19913;-74
2022/02/19 02:41:13;;;;;;;;;;;9.70;99.90;;;;;;5056405;28;20238;-73
2022/02/19 02:43:38;;;;;;;;;;;9.80;99.90;;;;;;5058350;28;19920;-73
2022/02/19 02:46:04;;;;;;;;;;;9.90;99.90;;;;;;5058367;28;20362;-73
2022/02/19 02:48:29;;;;;;;;;;;9.90;99.90;;;;;;5079294;28;19932;-72
2022/02/19 02:50:56;;;;;;;;;;;9.90;99.90;;;;;;5059219;28;19913;-73
2022/02/19 02:53:24;;;;;;;;;;;9.90;99.90;;;;;;5063150;28;19916;-73
2022/02/19 02:55:50;;;;;;;;;;;9.90;99.90;;;;;;5057729;28;19913;-73
2022/02/19 02:58:15;;;;;;;;;;;10.00;99.90;;;;;;5058822;28;19923;-73
2022/02/19 03:00:42;;;;;;;;;;;9.90;99.90;;;;;;5056542;28;20344;-73
2022/02/19 03:03:20;;;;;;;;;;;9.90;99.90;;;;;;5062193;28;20475;-73
2022/02/19 03:05:45;;;;;;;;;;;9.90;99.90;;;;;;5058765;28;20092;-72
2022/02/19 03:08:11;;;;;;;;;;;9.90;99.90;;;;;;5059556;28;20011;-72
2022/02/19 03:10:36;;;;;;;;;;;9.90;99.90;;;;;;5075987;28;19917;-72
2022/02/19 03:13:02;;;;;;;;;;;9.90;99.90;;;;;;5061512;28;20015;-72
2022/02/19 03:15:28;;;;;;;;;;;9.90;99.90;;;;;;5057453;28;20346;-73
2022/02/19 03:17:53;;;;;;;;;;;9.90;99.90;;;;;;5058129;28;19936;-73
2022/02/19 03:20:20;;;;;;;;;;;9.90;99.90;;;;;;5056085;28;19917;-72
2022/02/19 03:22:46;;;;;;;;;;;9.90;99.90;;;;;;5074501;28;19913;-72
2022/02/19 03:25:12;;;;;;;;;;;9.90;99.90;;;;;;5074357;28;19923;-72
2022/02/19 03:27:38;;;;;;;;;;;10.00;99.90;;;;;;5054777;28;20345;-72
2022/02/19 03:30:04;;;;;;;;;;;9.90;99.90;;;;;;5070524;28;19920;-73
2022/02/19 03:32:30;;;;;;;;;;;10.00;99.90;;;;;;5054728;28;20003;-73
2022/02/19 03:34:55;;;;;;;;;;;9.90;99.90;;;;;;5059379;28;19965;-73
2022/02/19 03:37:21;;;;;;;;;;;9.90;99.90;;;;;;5058859;28;19920;-73
2022/02/19 03:39:47;;;;;;;;;;;10.00;99.90;;;;;;5060183;28;20674;-74
2022/02/19 03:42:12;;;;;;;;;;;9.90;99.90;;;;;;5053728;28;19913;-73
2022/02/19 03:44:38;;;;;;;;;;;9.90;99.90;;;;;;5057643;28;20358;-73
2022/02/19 03:47:04;;;;;;;;;;;9.90;99.90;;;;;;5060154;28;19935;-74
2022/02/19 03:49:29;;;;;;;;;;;9.90;99.90;;;;;;5056144;28;19988;-73
2022/02/19 03:51:55;;;;;;;;;;;9.90;99.90;;;;;;5061318;28;19913;-73
2022/02/19 03:54:20;;;;;;;;;;;10.00;99.90;;;;;;5070485;28;19928;-73
2022/02/19 03:56:46;;;;;;;;;;;10.00;99.90;;;;;;5058386;28;20010;-73
2022/02/19 03:59:14;;;;;;;;;;;10.00;99.90;;;;;;5062250;28;19917;-73
2022/02/19 04:01:44;;;;;;;;;;;9.90;99.90;;;;;;5065802;28;19912;-73
2022/02/19 04:04:10;;;;;;;;;;;9.90;99.90;;;;;;5057246;28;19917;-73
2022/02/19 04:06:35;;;;;;;;;;;9.90;99.90;;;;;;5073411;28;20020;-73
2022/02/19 04:09:01;;;;;;;;;;;9.90;99.90;;;;;;5061263;28;19997;-72
2022/02/19 04:11:26;;;;;;;;;;;9.90;99.90;;;;;;5074031;28;19951;-72
2022/02/19 04:13:52;;;;;;;;;;;9.90;99.90;;;;;;5055585;28;19920;-73
2022/02/19 04:16:18;;;;;;;;;;;9.90;99.90;;;;;;5075962;28;19956;-75
2022/02/19 04:18:43;;;;;;;;;;;10.00;99.90;;;;;;5074364;28;19982;-74
2022/02/19 04:21:09;;;;;;;;;;;10.00;99.90;;;;;;5052846;28;19940;-73
2022/02/19 04:23:35;;;;;;;;;;;10.00;99.90;;;;;;5065776;28;20330;-73
2022/02/19 04:26:00;;;;;;;;;;;10.00;99.90;;;;;;5065395;28;20003;-73
2022/02/19 04:28:26;;;;;;;;;;;10.00;99.90;;;;;;5062375;28;19916;-74
2022/02/19 04:30:53;;;;;;;;;;;10.00;99.90;;;;;;5052965;28;20077;-74
2022/02/19 04:33:19;;;;;;;;;;;10.00;99.90;;;;;;5056551;28;19952;-73
2022/02/19 04:35:45;;;;;;;;;;;10.00;99.90;;;;;;5073958;28;19963;-74
2022/02/19 04:38:14;;;;;;;;;;;10.00;99.90;;;;;;5059344;28;20447;-74
2022/02/19 04:40:40;;;;;;;;;;;10.00;99.90;;;;;;5057736;28;20318;-73
2022/02/19 04:43:09;;;;;;;;;;;9.90;99.90;;;;;;5057630;28;19978;-74
2022/02/19 04:45:35;;;;;;;;;;;9.90;99.90;;;;;;5066804;28;19919;-74
2022/02/19 04:48:01;;;;;;;;;;;9.90;99.90;;;;;;5054223;28;19912;-73
2022/02/19 04:50:47;;;;;;;;;;;10.00;99.90;;;;;;5069483;28;19917;-74
2022/02/19 04:53:13;;;;;;;;;;;10.00;99.90;;;;;;5053851;28;20327;-73
2022/02/19 04:55:39;;;;;;;;;;;10.00;99.90;;;;;;5069267;28;19939;-74
2022/02/19 04:58:04;;;;;;;;;;;10.00;99.90;;;;;;5055384;28;19980;-74
2022/02/19 05:00:30;;;;;;;;;;;10.00;99.90;;;;;;5056340;28;19986;-73
2022/02/19 05:02:55;;;;;;;;;;;10.00;99.90;;;;;;5061776;28;19935;-74
2022/02/19 05:05:21;;;;;;;;;;;10.00;99.90;;;;;;5058523;28;20030;-73
2022/02/19 05:07:46;;;;;;;;;;;10.00;99.90;;;;;;5062499;28;19916;-74
2022/02/19 05:10:12;;;;;;;;;;;9.90;99.90;;;;;;5073741;28;19916;-73
2022/02/19 05:12:41;;;;;;;;;;;9.90;99.90;;;;;;5077227;28;19992;-73
2022/02/19 05:15:10;;;;;;;;;;;9.90;99.90;;;;;;5056920;28;19920;-73
2022/02/19 05:17:42;;;;;;;;;;;10.00;99.90;;;;;;5064689;28;19996;-73
2022/02/19 05:20:08;;;;;;;;;;;10.10;99.90;;;;;;5071040;28;19927;-73
2022/02/19 05:22:34;;;;;;;;;;;10.00;99.90;;;;;;5065243;28;19913;-74
2022/02/19 05:25:00;;;;;;;;;;;10.00;99.90;;;;;;5071543;28;19923;-74
2022/02/19 05:27:25;;;;;;;;;;;10.10;99.90;;;;;;5060373;28;19913;-74
2022/02/19 05:29:51;;;;;;;;;;;10.00;99.90;;;;;;5064280;28;20367;-74
2022/02/19 05:32:16;;;;;;;;;;;10.00;99.90;;;;;;5054992;28;19919;-74
2022/02/19 05:34:42;;;;;;;;;;;10.00;99.90;;;;;;5062090;28;19920;-74
2022/02/19 05:37:07;;;;;;;;;;;10.10;99.90;;;;;;5057819;28;19959;-74
2022/02/19 05:39:33;;;;;;;;;;;10.10;99.90;;;;;;5063492;28;20822;-73
2022/02/19 05:41:59;;;;;;;;;;;10.00;99.90;;;;;;5073415;28;19963;-74
2022/02/19 05:44:24;;;;;;;;;;;10.10;99.90;;;;;;5059376;28;20019;-74
2022/02/19 05:46:50;;;;;;;;;;;10.10;99.90;;;;;;5061897;28;19913;-74
2022/02/19 05:49:15;;;;;;;;;;;10.00;99.90;;;;;;5073515;28;19913;-74
2022/02/19 05:51:41;;;;;;;;;;;10.00;99.90;;;;;;5057177;28;19944;-74
2022/02/19 05:54:07;;;;;;;;;;;10.10;99.90;;;;;;5077047;28;19917;-74
2022/02/19 05:56:32;;;;;;;;;;;10.00;99.90;;;;;;5072625;28;20317;-74
2022/02/19 05:58:58;;;;;;;;;;;10.00;99.90;;;;;;5059376;28;19939;-75
2022/02/19 06:01:24;;;;;;;;;;;10.00;99.90;;;;;;5066613;28;19961;-74
2022/02/19 06:03:49;;;;;;;;;;;10.00;99.90;;;;;;5068776;28;19917;-74
2022/02/19 06:06:15;;;;;;;;;;;10.00;99.90;;;;;;5056689;28;19923;-72
2022/02/19 06:08:42;;;;;;;;;;;10.10;99.90;;;;;;5092052;28;19908;-75
2022/02/19 06:11:08;;;;;;;;;;;10.00;99.90;;;;;;5063980;28;20043;-74
2022/02/19 06:13:34;;;;;;;;;;;10.00;99.90;;;;;;5071991;28;19944;-75
2022/02/19 06:16:00;;;;;;;;;;;10.10;99.90;;;;;;5076486;28;20024;-74
2022/02/19 06:18:26;;;;;;;;;;;10.10;99.90;;;;;;5052159;28;20325;-74
2022/02/19 06:20:52;;;;;;;;;;;10.10;99.90;;;;;;5050598;28;19916;-73
2022/02/19 06:23:18;;;;;;;;;;;10.10;99.90;;;;;;5076684;28;20244;-73
2022/02/19 06:25:43;;;;;;;;;;;10.10;99.90;;;;;;5058849;28;19970;-74
2022/02/19 06:28:09;;;;;;;;;;;10.00;99.90;;;;;;5055701;28;19955;-74
2022/02/19 06:30:34;;;;;;;;;;;10.00;99.90;;;;;;5087408;28;20388;-74
2022/02/19 06:33:01;;;;;;;;;;;10.00;99.90;;;;;;5069897;28;19977;-74
2022/02/19 06:35:27;;;;;;;;;;;9.90;99.90;;;;;;5055130;28;19923;-74
2022/02/19 06:37:53;;;;;;;;;;;9.90;99.90;;;;;;5064756;28;19913;-74
2022/02/19 06:40:19;;;;;;;;;;;9.90;99.90;;;;;;5088667;28;20267;-73
2022/02/19 06:42:44;;;;;;;;;;;9.80;99.90;;;;;;5086018;28;19912;-73
2022/02/19 06:45:10;;;;;;;;;;;9.80;99.90;;;;;;5063677;28;19920;-74
2022/02/19 06:47:36;;;;;;;;;;;9.80;99.90;;;;;;5065426;28;19909;-75
2022/02/19 06:50:03;;;;;;;;;;;9.80;99.90;;;;;;5084378;28;20022;-74
2022/02/19 06:52:29;;;;;;;;;;;9.80;99.90;;;;;;5083925;28;20440;-73
2022/02/19 06:54:55;;;;;;;;;;;9.80;99.90;;;;;;5071068;28;19999;-73
2022/02/19 06:57:21;;;;;;;;;;;9.80;99.90;;;;;;5076804;28;20007;-76
2022/02/19 06:59:48;;;;;;;;;;;9.70;99.90;;;;;;5082776;28;20391;-75
2022/02/19 07:02:13;;;;;;;;;;;9.70;99.90;;;;;;5069482;28;20566;-74
2022/02/19 07:04:39;;;;;;;;;;;9.70;99.90;;;;;;5066500;28;20043;-74
2022/02/19 07:07:04;;;;;;;;;;;9.70;99.90;;;;;;5068303;28;19938;-74
2022/02/19 07:09:30;;;;;;;;;;;9.70;99.90;;;;;;5068666;28;19974;-74
2022/02/19 07:11:56;;;;;;;;;;;9.80;99.90;;;;;;5056389;28;19913;-74
2022/02/19 07:14:22;;;;;;;;;;;9.80;99.90;;;;;;5061523;28;19913;-74
2022/02/19 07:16:48;;;;;;;;;;;9.80;99.90;;;;;;5061904;28;20374;-75
2022/02/19 07:19:14;;;;;;;;;;;9.90;99.90;;;;;;5062525;28;19923;-74
2022/02/19 07:21:40;;;;;;;;;;;9.90;99.90;;;;;;5060313;28;20177;-73
2022/02/19 07:24:05;;;;;;;;;;;9.90;99.90;;;;;;5062991;28;19921;-74
2022/02/19 07:26:31;;;;;;;;;;;9.90;99.90;;;;;;5069599;28;19912;-74
2022/02/19 07:28:57;;;;;;;;;;;10.00;99.90;;;;;;5058192;28;20243;-73
2022/02/19 07:31:22;;;;;;;;;;;10.00;99.90;;;;;;5077159;28;19912;-74
2022/02/19 07:33:48;;;;;;;;;;;10.00;99.90;;;;;;5059618;28;20299;-74
2022/02/19 07:36:13;;;;;;;;;;;10.00;99.90;;;;;;5066936;28;20011;-73
2022/02/19 07:38:39;;;;;;;;;;;10.10;99.90;;;;;;5058334;28;19913;-73
2022/02/19 07:41:05;;;;;;;;;;;10.10;99.90;;;;;;5084785;28;20008;-74
2022/02/19 07:43:30;;;;;;;;;;;10.10;99.90;;;;;;5061350;28;19928;-74
2022/02/19 07:45:57;;;;;;;;;;;10.10;99.90;;;;;;5074916;28;20607;-74
2022/02/19 07:48:23;;;;;;;;;;;10.20;99.90;;;;;;5058737;28;20497;-74
2022/02/19 07:59:15;;;;;;;;;;;10.30;99.90;;;;;;5058904;28;19955;-74
2022/02/19 08:01:44;;;;;;;;;;;10.30;99.90;;;;;;5071155;28;20532;-75
2022/02/19 08:04:22;;;;;;;;;;;;;;;;;;;;;
2022/02/19 08:06:48;;;;;;;;;;;10.30;99.90;;;;;;5070497;28;19956;-74
2022/02/19 08:09:13;;;;;;;;;;;10.30;99.90;;;;;;5065823;28;20011;-74
2022/02/19 08:11:40;;;;;;;;;;;10.30;99.90;;;;;;5069404;28;19954;-74
2022/02/19 08:14:06;;;;;;;;;;;10.30;99.90;;;;;;5078877;28;19939;-75
2022/02/19 08:16:31;;;;;;;;;;;10.40;99.90;;;;;;5067743;28;20326;-74
2022/02/19 08:18:58;;;;;;;;;;;10.40;99.90;;;;;;5075532;28;19912;-74
2022/02/19 08:21:27;;;;;;;;;;;10.40;99.90;;;;;;5061867;28;20377;-74
2022/02/19 08:23:52;;;;;;;;;;;10.40;99.90;;;;;;5059714;28;19927;-73
2022/02/19 08:26:23;;;;;;;;;;;10.40;99.90;;;;;;5059604;28;20341;-73
2022/02/19 08:28:49;;;;;;;;;;;10.50;99.90;;;;;;5068557;28;19958;-74
2022/02/19 08:31:15;;;;;;;;;;;10.60;99.90;;;;;;5058722;28;19916;-74
2022/02/19 08:33:41;;;;;;;;;;;10.60;99.90;;;;;;5057618;28;20011;-73
2022/02/19 08:36:16;;;;;;;;;;;10.70;99.90;;;;;;5075669;28;20345;-74
2022/02/19 08:38:45;;;;;;;;;;;10.70;99.90;;;;;;5085646;28;19959;-74
2022/02/19 08:44:35;;;;;;;;;;;10.70;99.90;;;;;;5042761;28;19919;-75
2022/02/19 08:47:30;;;;;;;;;;;10.60;99.90;;;;;;5061886;28;19912;-73
2022/02/19 08:50:31;;;;;;;;;;;;;;;;;;;;;
2022/02/19 08:53:14;;;;;;;;;;;10.60;99.90;;;;;;5067901;28;19934;-75
2022/02/19 08:55:43;;;;;;;;;;;10.70;99.90;;;;;;5063675;28;19908;-73
2022/02/19 08:58:12;;;;;;;;;;;10.60;99.90;;;;;;5065511;28;20329;-77
2022/02/19 09:00:42;;;;;;;;;;;10.60;99.90;;;;;;5061314;28;19912;-75
2022/02/19 09:03:08;;;;;;;;;;;10.70;99.90;;;;;;5073669;28;20042;-74
2022/02/19 09:05:34;;;;;;;;;;;10.70;99.90;;;;;;5081658;28;20370;-75
2022/02/19 09:08:23;;;;;;;;;;;10.60;99.90;;;;;;5068423;28;19908;-74
2022/02/19 09:10:49;;;;;;;;;;;10.80;99.90;;;;;;5077863;28;19960;-75
2022/02/19 09:13:15;;;;;;;;;;;10.80;99.90;;;;;;5055550;28;20092;-76
2022/02/19 09:15:42;;;;;;;;;;;10.80;99.90;;;;;;5058319;28;19962;-75
2022/02/19 09:18:07;;;;;;;;;;;10.90;99.90;;;;;;5060279;28;19947;-75
2022/02/19 09:20:43;;;;;;;;;;;11.00;99.90;;;;;;5077721;28;20019;-76
2022/02/19 09:23:32;;;;;;;;;;;;;;;;;;;;;
2022/02/19 09:28:51;;;;;;;;;;;11.10;99.90;;;;;;5044454;28;19924;-75
2022/02/19 09:31:23;;;;;;;;;;;11.10;99.90;;;;;;5067851;28;20068;-75
2022/02/19 09:33:49;;;;;;;;;;;11.00;99.90;;;;;;5064762;28;19913;-66
2022/02/19 09:36:15;;;;;;;;;;;11.00;99.90;;;;;;5067070;28;19977;-67
2022/02/19 09:38:41;;;;;;;;;;;11.00;99.90;;;;;;5072447;28;19909;-68
2022/02/19 09:41:07;;;;;;;;;;;11.00;99.90;;;;;;5054817;28;19935;-69
2022/02/19 09:43:34;;;;;;;;;;;11.00;99.90;;;;;;5059155;28;19917;-68
2022/02/19 09:46:01;;;;;;;;;;;11.10;99.90;;;;;;5064659;28;19999;-68
2022/02/19 09:48:27;;;;;;;;;;;11.10;99.90;;;;;;5058963;28;19945;-65
2022/02/19 09:50:54;;;;;;;;;;;11.10;99.90;;;;;;5059924;28;20395;-69
2022/02/19 09:53:20;;;;;;;;;;;11.10;99.90;;;;;;5058638;28;19908;-68
2022/02/19 09:55:48;;;;;;;;;;;11.10;99.90;;;;;;5076189;28;19929;-69
2022/02/19 09:58:14;;;;;;;;;;;11.20;99.90;;;;;;5070917;28;20004;-66
2022/02/19 10:00:43;;;;;;;;;;;11.10;99.90;;;;;;5066578;28;20003;-65
2022/02/19 10:03:13;;;;;;;;;;;11.10;99.90;;;;;;5062757;28;19917;-66
2022/02/19 10:05:39;;;;;;;;;;;11.10;99.90;;;;;;5078428;28;19917;-64
2022/02/19 10:08:07;;;;;;;;;;;11.10;99.90;;;;;;5063920;28;19912;-66
2022/02/19 10:10:59;;;;;;;;;;;11.10;99.90;;;;;;5081570;28;20009;-67
2022/02/19 10:13:41;;;;;;;;;;;11.20;99.90;;;;;;5059956;28;19920;-72
2022/02/19 10:16:11;;;;;;;;;;;11.30;99.90;;;;;;5078770;28;19974;-69
2022/02/19 10:18:42;;;;;;;;;;;11.20;99.90;;;;;;5055316;28;20050;-68
2022/02/19 10:21:13;;;;;;;;;;;11.20;99.90;;;;;;5061796;28;19928;-65
2022/02/19 10:23:46;;;;;;;;;;;11.10;99.90;;;;;;5062563;28;19917;-66
2022/02/19 10:26:13;;;;;;;;;;;11.20;99.90;;;;;;5066841;28;19999;-67
2022/02/19 10:28:39;;;;;;;;;;;11.30;99.90;;;;;;5069740;28;19965;-66
2022/02/19 10:31:24;;;;;;;;;;;11.30;99.90;;;;;;5075129;28;20394;-66
2022/02/19 10:34:03;;;;;;;;;;;11.30;99.90;;;;;;5072506;28;19913;-70
2022/02/19 10:36:40;;;;;;;;;;;11.40;99.90;;;;;;5056133;28;19909;-67
2022/02/19 10:39:08;;;;;;;;;;;11.40;99.90;;;;;;5072550;28;19920;-66
2022/02/19 10:41:34;;;;;;;;;;;11.50;99.90;;;;;;5071801;28;19912;-69
2022/02/19 10:44:19;;;;;;;;;;;11.40;99.90;;;;;;5077791;28;19924;-69
2022/02/19 10:46:45;;;;;;;;;;;11.50;99.90;;;;;;5058453;28;20386;-67
2022/02/19 10:49:13;;;;;;;;;;;11.50;99.90;;;;;;5069227;28;19995;-70
2022/02/19 10:51:43;;;;;;;;;;;11.50;99.90;;;;;;5057383;28;19913;-67
2022/02/19 10:54:09;;;;;;;;;;;11.50;99.90;;;;;;5071759;28;19909;-66
2022/02/19 10:56:36;;;;;;;;;;;11.60;99.90;;;;;;5066217;28;20368;-67
2022/02/19 10:59:06;;;;;;;;;;;11.50;99.90;;;;;;5070499;28;19920;-66
2022/02/19 11:01:38;;;;;;;;;;;11.50;99.90;;;;;;5062959;28;19919;-64
2022/02/19 11:04:04;;;;;;;;;;;11.50;99.90;;;;;;5071417;28;20007;-66
2022/02/19 11:06:30;;;;;;;;;;;11.40;99.90;;;;;;5073492;28;19923;-67
2022/02/19 11:08:56;;;;;;;;;;;11.50;99.90;;;;;;5060417;28;19956;-68
2022/02/19 11:11:26;;;;;;;;;;;11.50;99.90;;;;;;5065840;28;19915;-67
2022/02/19 11:13:52;;;;;;;;;;;11.50;99.90;;;;;;5059416;28;19909;-66
2022/02/19 11:16:22;;;;;;;;;;;11.50;99.90;;;;;;5068168;28;19917;-67
2022/02/19 11:18:48;;;;;;;;;;;11.60;99.90;;;;;;5061811;28;19913;-66
2022/02/19 11:21:15;;;;;;;;;;;11.70;99.90;;;;;;5070549;28;19916;-69
2022/02/19 11:23:42;;;;;;;;;;;11.70;99.90;;;;;;5061913;28;19913;-66
2022/02/19 11:26:08;;;;;;;;;;;11.70;99.90;;;;;;5055416;28;19955;-69
2022/02/19 11:28:36;;;;;;;;;;;11.70;99.90;;;;;;5077368;28;19919;-66
2022/02/19 11:31:06;;;;;;;;;;;11.70;99.90;;;;;;5056113;28;19948;-66
2022/02/19 11:33:33;;;;;;;;;;;11.80;99.90;;;;;;5077208;28;20592;-67
2022/02/19 11:36:00;;;;;;;;;;;11.70;99.90;;;;;;5067860;28;19908;-67
2022/02/19 11:38:32;;;;;;;;;;;11.70;99.90;;;;;;5061486;28;19966;-68
2022/02/19 11:40:59;;;;;;;;;;;11.70;99.90;;;;;;5070815;28;19912;-66
2022/02/19 11:43:37;;;;;;;;;;;11.60;99.90;;;;;;5067450;28;19942;-68
2022/02/19 11:46:15;;;;;;;;;;;11.70;99.90;;;;;;5060451;28;20564;-67
2022/02/19 11:48:42;;;;;;;;;;;11.70;99.90;;;;;;5058631;28;20360;-68
2022/02/19 11:51:14;;;;;;;;;;;11.70;99.90;;;;;;5064168;28;19931;-67
2022/02/19 11:53:40;;;;;;;;;;;11.70;99.90;;;;;;5075986;28;19912;-67
2022/02/19 11:56:10;;;;;;;;;;;11.70;99.90;;;;;;5059858;28;19913;-65
2022/02/19 11:58:49;;;;;;;;;;;11.80;99.90;;;;;;5061818;28;19999;-67
2022/02/19 12:01:14;;;;;;;;;;;11.70;99.90;;;;;;5059491;28;20278;-68
2022/02/19 12:03:40;;;;;;;;;;;11.90;99.90;;;;;;5070649;28;19919;-67
2022/02/19 12:06:06;;;;;;;;;;;11.90;99.90;;;;;;5062936;28;19966;-67
2022/02/19 12:08:46;;;;;;;;;;;12.00;99.90;;;;;;5070607;28;20381;-66
2022/02/19 12:11:13;;;;;;;;;;;12.00;99.90;;;;;;5057765;28;19912;-67
2022/02/19 12:13:42;;;;;;;;;;;12.10;99.90;;;;;;5055450;28;19963;-65
2022/02/19 12:16:26;;;;;;;;;;;12.00;99.90;;;;;;5059328;28;20389;-65
2022/02/19 12:18:54;;;;;;;;;;;11.80;99.90;;;;;;5065813;28;19913;-67
2022/02/19 12:21:32;;;;;;;;;;;11.80;99.90;;;;;;5088580;28;19916;-67
2022/02/19 12:24:19;;;;;;;;;;;11.70;99.90;;;;;;5060044;28;20307;-68
2022/02/19 12:26:56;;;;;;;;;;;11.70;99.90;;;;;;5064067;28;19913;-67
2022/02/19 12:29:28;;;;;;;;;;;11.70;99.90;;;;;;5067187;28;20026;-66
2022/02/19 12:32:06;;;;;;;;;;;11.70;99.90;;;;;;5070425;28;19951;-69
2022/02/19 12:34:39;;;;;;;;;;;11.80;99.90;;;;;;5067066;28;20049;-67
2022/02/19 12:37:05;;;;;;;;;;;11.70;99.90;;;;;;5067453;28;19920;-67
2022/02/19 12:39:33;;;;;;;;;;;11.70;99.90;;;;;;5077858;28;19951;-66
2022/02/19 12:41:59;;;;;;;;;;;11.70;99.90;;;;;;5063382;28;19986;-67
2022/02/19 12:44:26;;;;;;;;;;;11.60;99.90;;;;;;5074066;28;20373;-66
2022/02/19 12:46:55;;;;;;;;;;;11.70;99.90;;;;;;5065979;28;20070;-65
2022/02/19 12:49:23;;;;;;;;;;;11.70;99.90;;;;;;5055004;28;19967;-65
2022/02/19 12:51:59;;;;;;;;;;;11.70;99.90;;;;;;5062440;28;19908;-69
2022/02/19 12:54:42;;;;;;;;;;;11.70;99.90;;;;;;5065534;28;19913;-67
2022/02/19 12:57:10;;;;;;;;;;;11.80;99.90;;;;;;5065001;28;19920;-68
2022/02/19 12:59:36;;;;;;;;;;;12.00;99.90;;;;;;5067542;28;20538;-68
2022/02/19 13:02:03;;;;;;;;;;;12.00;99.90;;;;;;5057198;28;20387;-70
2022/02/19 13:04:29;;;;;;;;;;;12.10;99.90;;;;;;5072060;28;20300;-68
2022/02/19 13:06:55;;;;;;;;;;;12.10;99.90;;;;;;5060841;28;20004;-66
2022/02/19 13:09:21;;;;;;;;;;;12.10;99.90;;;;;;5056812;28;20007;-66
2022/02/19 13:11:49;;;;;;;;;;;12.10;99.90;;;;;;5061740;28;19966;-68
2022/02/19 13:14:15;;;;;;;;;;;12.20;99.90;;;;;;5068350;28;19912;-68
2022/02/19 13:16:54;;;;;;;;;;;12.20;99.90;;;;;;5059492;28;19920;-67
2022/02/19 13:19:19;;;;;;;;;;;12.20;99.90;;;;;;5058901;28;19916;-67
2022/02/19 13:21:45;;;;;;;;;;;12.30;99.90;;;;;;5077610;28;19957;-69
2022/02/19 13:24:17;;;;;;;;;;;12.30;99.90;;;;;;5053678;28;19916;-70
2022/02/19 13:26:42;;;;;;;;;;;12.30;99.90;;;;;;5067102;28;19913;-68
2022/02/19 13:29:08;;;;;;;;;;;12.30;99.90;;;;;;5065432;28;19909;-66
2022/02/19 13:31:34;;;;;;;;;;;12.30;99.90;;;;;;5061909;28;19973;-67
2022/02/19 13:33:59;;;;;;;;;;;12.30;99.90;;;;;;5069476;28;20294;-70
2022/02/19 13:36:29;;;;;;;;;;;12.30;99.90;;;;;;5078974;28;20346;-71
2022/02/19 13:38:55;;;;;;;;;;;12.20;99.90;;;;;;5080817;28;19974;-66
2022/02/19 13:41:21;;;;;;;;;;;12.20;99.90;;;;;;5060159;28;20318;-67
2022/02/19 13:43:57;;;;;;;;;;;12.10;99.90;;;;;;5061790;28;22152;-67
2022/02/19 13:46:23;;;;;;;;;;;12.00;99.90;;;;;;5066268;28;19973;-68
2022/02/19 13:48:52;;;;;;;;;;;12.00;99.90;;;;;;5061794;28;20362;-67
2022/02/19 13:51:18;;;;;;;;;;;12.00;99.90;;;;;;5073514;28;19956;-69
2022/02/19 13:53:44;;;;;;;;;;;12.10;99.90;;;;;;5073877;28;19912;-70
2022/02/19 13:56:10;;;;;;;;;;;12.10;99.90;;;;;;5065080;28;19998;-69
2022/02/19 13:58:37;;;;;;;;;;;12.00;99.90;;;;;;5074386;28;20460;-69
2022/02/19 14:01:11;;;;;;;;;;;12.20;99.90;;;;;;5064326;28;19913;-68
2022/02/19 14:03:47;;;;;;;;;;;12.20;99.90;;;;;;5061481;28;19970;-69
2022/02/19 14:06:39;;;;;;;;;;;12.20;99.90;;;;;;5067132;28;19912;-66
2022/02/19 14:09:28;;;;;;;;;;;12.10;99.90;;;;;;5081468;28;19932;-67
2022/02/19 14:11:55;;;;;;;;;;;12.10;99.90;;;;;;5064619;28;20042;-66
2022/02/19 14:14:26;;;;;;;;;;;12.10;99.90;;;;;;5066000;28;19927;-68
2022/02/19 14:17:02;;;;;;;;;;;12.00;99.90;;;;;;5064870;28;19920;-66
2022/02/19 14:19:28;;;;;;;;;;;12.00;99.90;;;;;;5063547;28;19928;-64
2022/02/19 14:22:05;;;;;;;;;;;12.10;99.90;;;;;;5056208;28;20273;-69
2022/02/19 14:24:31;;;;;;;;;;;12.10;99.90;;;;;;5072529;28;19979;-68
2022/02/19 14:27:13;;;;;;;;;;;12.20;99.90;;;;;;5062040;28;19916;-68
2022/02/19 14:29:40;;;;;;;;;;;12.20;99.90;;;;;;5062421;28;20355;-66
2022/02/19 14:32:07;;;;;;;;;;;12.20;99.90;;;;;;5080160;28;19919;-64
2022/02/19 14:34:32;;;;;;;;;;;12.10;99.90;;;;;;5084217;28;20007;-64
2022/02/19 14:36:58;;;;;;;;;;;12.10;99.90;;;;;;5057539;28;20015;-67
2022/02/19 14:39:24;;;;;;;;;;;12.00;99.90;;;;;;5059441;28;19924;-67
2022/02/19 14:41:49;;;;;;;;;;;11.90;99.90;;;;;;5071024;28;19912;-67